Ridgeway, North Carolina
Current Conditions -  °F | °C
As of 12:55 PM on Sunday 21 Dec 2014 (Local Time) from KHNZ Reporting Station
Overcast Overcast  
Wind Chill: 41°   Ceiling: 6500
Heat Index: 44°   Visibility: 10mi
Dew Point: 31°   Wind: 6mph
Humidity: 61%   Direction: 60°ENE
Pressure: 30.27"   Gusts: NA
Location:  36.44°N, 78.24°W
Report Text: KHNZ 211755Z AUTO 06005KT 10SM OVC065 07/00 A3027 RMK AO2 T00671003 10068 20010
Loading
Personal Weather Stations






























Interactive Weather Map New forecast layout! Learn more

10-Day Weather Forecast

Advertisements
Track Severe Weather on mobile